EGGP Airport Information

Runway Information
Runway 09 Length 7500 ft width 151 ft
Elevation 59 ft Threshold 200 ft Heading 86
Runway 27 Length 7500 ft Width 151 ft
Elevation 77 ft Threshold 0 ft Heading 266
Airport Frequencies
Type APP Name APP Frequency 119.85 MHZ
Type ATIS Name ATIS Frequency 124.325 MHZ
Type GND Name GND Frequency 121.95 MHZ
Type TWR Name TWR Frequency 126.35 MHZ
Airport Navaids
Airport Weather Information & NOTAM
ADDS - METARS form results

(0605 UTC 16 September 2019)
Data provider http://aviationweather.gov/metar/data/
 
METAR text: EGGP 160550Z VRB02KT 9999 FEW014 SCT043 13/13 Q1021
Conditions at: EGGP (LIVERPOOL AIRPOR, GB) observed 0550 UTC 16 September 2019
Temperature: 13.0°C (55°F)
Dewpoint: 13.0°C (55°F) [RH = 100%]
Pressure (altimeter): 30.15 inches Hg (1021.0 mb)
Winds: variable direction winds at 2 MPH (2 knots; 1.0 m/s)
Visibility: 6 or more miles (10+ km)
Ceiling: at least 12,000 feet AGL
Clouds: few clouds at 1400 feet AGL
scattered clouds at 4300 feet AGL
Weather: no significant weather observed at this time

METAR text: EGGP 160520Z 32003KT 9999 FEW031 BKN044 12/12 Q1021
Conditions at: EGGP (LIVERPOOL AIRPOR, GB) observed 0520 UTC 16 September 2019
Temperature: 12.0°C (54°F)
Dewpoint: 12.0°C (54°F) [RH = 100%]
Pressure (altimeter): 30.15 inches Hg (1021.0 mb)
Winds: from the NW (320 degrees) at 3 MPH (3 knots; 1.5 m/s)
Visibility: 6 or more miles (10+ km)
Ceiling: 4400 feet AGL
Clouds: few clouds at 3100 feet AGL
broken clouds at 4400 feet AGL
Weather: no significant weather observed at this time

Forecast for: EGGP (LIVERPOOL AIRPOR, GB)
Text: TAF EGGP 160500Z 1606/1706 32004KT 9999 BKN025
Forecast period: 0600 to 0900 UTC 16 September 2019
Forecast type: FROM: standard forecast or significant change
Winds: from the NW (320 degrees) at 5 MPH (4 knots; 2.1 m/s)
Visibility: 6 or more miles 10+ km)
Ceiling: 2500 feet AGL
Clouds: broken clouds at 2500 feet AGL
Weather: no significant weather forecast for this period
Text: TEMPO 1606/1609 4000 RADZ BKN006
Forecast period: 0600 to 0900 UTC 16 September 2019
Forecast type: TEMPORARY: The following changes expected for less than half the time period
Visibility: 2.49 miles (4.01 km)
Ceiling: 600 feet AGL
Clouds: broken clouds at 600 feet AGL
Weather: RA DZ  (moderate rain, moderate drizzle)
Text: PROB30
Forecast period: 0600 to 0800 UTC 16 September 2019
Forecast type: TEMPORARY: The following changes expected for less than half the time period
Visibility: missing
Ceiling: 400 feet AGL
Clouds: broken clouds at 400 feet AGL
Weather: no significant weather forecast for this period
Text: TEMPO 1606/1608 BKN004
Forecast period: 0900 UTC 16 September 2019 to 0600 UTC 17 September 2019
Forecast type: BECOMING: Conditions expected to become as follows by 1200 UTC 16 September 2019
Winds: from the NW (320 degrees) at 5 MPH (4 knots; 2.1 m/s)
Visibility: 6 or more miles 10+ km)
Ceiling: unknown
Clouds: missing
Weather: NSW  (no significant weather)